createdAt,value
2019-02-28T00:01:57.875Z,17.53
2019-02-28T00:04:45.686Z,17.17
2019-02-28T00:07:22.430Z,20.40
2019-02-28T00:09:57.566Z,19.27
2019-02-28T00:13:05.192Z,21.50
2019-02-28T00:15:39.996Z,20.77
2019-02-28T00:18:49.833Z,20.93
2019-02-28T00:21:27.267Z,18.77
2019-02-28T00:24:30.022Z,18.83
2019-02-28T00:27:15.156Z,18.30
2019-02-28T00:29:53.286Z,16.83
2019-02-28T00:32:40.439Z,18.67
2019-02-28T00:35:50.698Z,22.10
2019-02-28T00:38:29.626Z,18.03
2019-02-28T00:41:09.279Z,19.50
2019-02-28T00:43:40.906Z,20.33
2019-02-28T00:46:14.835Z,19.07
2019-02-28T00:48:52.961Z,16.47
2019-02-28T00:51:29.723Z,19.97
2019-02-28T00:54:08.658Z,25.27
2019-02-28T00:56:40.705Z,20.87
2019-02-28T00:59:23.676Z,18.87
2019-02-28T01:02:17.582Z,22.87
2019-02-28T01:04:54.757Z,23.47
2019-02-28T01:10:24.905Z,20.40
2019-02-28T01:13:21.141Z,23.10
2019-02-28T01:15:55.699Z,23.53
2019-02-28T01:18:34.727Z,22.70
2019-02-28T01:21:12.497Z,23.20
2019-02-28T01:23:47.737Z,25.47
2019-02-28T01:26:25.152Z,21.07
2019-02-28T01:29:15.146Z,18.70
2019-02-28T01:31:55.159Z,22.60
2019-02-28T01:34:32.194Z,27.57
2019-02-28T01:37:13.140Z,25.67
2019-02-28T01:39:48.056Z,26.87
2019-02-28T01:42:24.929Z,23.90
2019-02-28T01:45:03.114Z,24.43
2019-02-28T01:47:37.924Z,28.60
2019-02-28T01:50:14.363Z,23.00
2019-02-28T01:52:51.511Z,23.20
2019-02-28T01:55:29.404Z,22.73
2019-02-28T01:58:08.055Z,21.87
2019-02-28T02:00:42.065Z,23.63
2019-02-28T02:03:20.868Z,22.90
2019-02-28T02:06:04.065Z,24.97
2019-02-28T02:08:37.835Z,21.33
2019-02-28T02:11:13.295Z,21.60
2019-02-28T02:13:48.108Z,25.63
2019-02-28T02:16:19.427Z,23.37
2019-02-28T02:18:54.748Z,24.23
2019-02-28T02:21:40.075Z,25.47
2019-02-28T02:24:14.813Z,24.43
2019-02-28T02:26:49.135Z,31.07
2019-02-28T02:29:22.047Z,26.80
2019-02-28T02:31:53.029Z,26.80
2019-02-28T02:34:28.185Z,26.57
2019-02-28T02:37:06.914Z,30.53
2019-02-28T02:39:40.148Z,30.03
2019-02-28T02:42:21.977Z,27.13
2019-02-28T02:45:06.931Z,34.13
2019-02-28T02:47:38.854Z,30.03
2019-02-28T02:50:12.148Z,29.77
2019-02-28T02:52:47.545Z,34.77
2019-02-28T02:55:20.218Z,29.57
2019-02-28T02:58:02.833Z,30.23
2019-02-28T03:00:36.525Z,31.03
2019-02-28T03:03:09.759Z,28.53
2019-02-28T03:05:41.658Z,29.50
2019-02-28T03:08:24.181Z,33.60
2019-02-28T03:10:55.416Z,29.87
2019-02-28T03:13:27.296Z,33.10
2019-02-28T03:16:12.745Z,33.50
2019-02-28T03:18:44.317Z,37.60
2019-02-28T03:21:16.994Z,34.47
2019-02-28T03:23:48.386Z,31.73
2019-02-28T03:26:25.380Z,32.03
2019-02-28T03:28:59.445Z,32.73
2019-02-28T03:31:37.158Z,36.40
2019-02-28T03:34:15.050Z,33.73
2019-02-28T03:36:55.163Z,37.40
2019-02-28T03:39:24.586Z,33.87
2019-02-28T03:42:01.562Z,33.17
2019-02-28T03:44:37.391Z,34.83
2019-02-28T03:47:13.603Z,32.00
2019-02-28T03:49:58.018Z,32.53
2019-02-28T03:52:29.278Z,33.07
2019-02-28T03:55:06.639Z,37.80
2019-02-28T03:57:39.372Z,35.37
2019-02-28T04:00:14.525Z,35.07
2019-02-28T04:02:45.724Z,32.70
2019-02-28T04:05:38.879Z,34.47
2019-02-28T04:08:12.218Z,30.00
2019-02-28T04:10:45.088Z,37.40
2019-02-28T04:13:19.502Z,32.27
2019-02-28T04:16:09.204Z,32.80
2019-02-28T04:18:44.313Z,36.87
2019-02-28T04:21:13.009Z,34.53
2019-02-28T04:23:47.337Z,37.20
2019-02-28T04:26:22.555Z,41.53
2019-02-28T04:28:57.656Z,32.93
2019-02-28T04:31:29.770Z,47.30
2019-02-28T04:34:01.295Z,36.63
2019-02-28T04:36:35.821Z,41.30
2019-02-28T04:39:08.471Z,40.63
2019-02-28T04:41:39.044Z,44.33
2019-02-28T04:44:15.374Z,42.37
2019-02-28T04:46:46.418Z,40.27
2019-02-28T04:49:22.749Z,43.30
2019-02-28T04:51:52.582Z,39.87
2019-02-28T04:54:24.553Z,46.63
2019-02-28T04:56:59.321Z,45.80
2019-02-28T04:59:34.951Z,43.93
2019-02-28T05:02:09.065Z,44.03
2019-02-28T05:04:39.695Z,44.27
2019-02-28T05:07:14.757Z,41.90
2019-02-28T05:09:48.776Z,42.47
2019-02-28T05:12:36.181Z,44.37
2019-02-28T05:15:10.201Z,48.37
2019-02-28T05:17:43.209Z,48.47
2019-02-28T05:20:18.333Z,48.53
2019-02-28T05:22:52.353Z,45.30
2019-02-28T05:25:26.075Z,49.63
2019-02-28T05:28:01.613Z,45.23
2019-02-28T05:30:35.438Z,49.53
2019-02-28T05:33:18.653Z,51.07
2019-02-28T05:35:57.332Z,49.50
2019-02-28T05:38:34.037Z,45.57
2019-02-28T05:41:12.207Z,47.47
2019-02-28T05:43:50.253Z,50.87
2019-02-28T05:46:26.650Z,52.37
2019-02-28T05:48:58.151Z,53.83
2019-02-28T05:51:43.314Z,54.17
2019-02-28T05:54:17.233Z,60.27
2019-02-28T05:56:53.646Z,59.23
2019-02-28T05:59:31.838Z,55.97
2019-02-28T06:02:05.071Z,57.57
2019-02-28T06:04:39.557Z,57.30
2019-02-28T06:07:16.557Z,62.77
2019-02-28T06:09:49.432Z,54.87
2019-02-28T06:12:21.155Z,66.33
2019-02-28T06:15:08.171Z,58.10
2019-02-28T06:17:44.936Z,59.63
2019-02-28T06:20:18.071Z,58.03
2019-02-28T06:22:52.017Z,60.87
2019-02-28T06:25:32.534Z,64.80
2019-02-28T06:28:05.794Z,59.77
2019-02-28T06:30:42.787Z,58.00
2019-02-28T06:33:13.712Z,58.63
2019-02-28T06:35:45.543Z,59.37
2019-02-28T06:38:23.282Z,55.97
2019-02-28T06:40:55.123Z,59.77
2019-02-28T06:43:30.832Z,58.67
2019-02-28T06:46:08.545Z,60.23
2019-02-28T06:48:39.293Z,59.67
2019-02-28T06:51:12.823Z,59.73
2019-02-28T06:53:44.367Z,58.60
2019-02-28T06:56:22.220Z,61.63
2019-02-28T06:58:54.851Z,58.87
2019-02-28T07:01:29.481Z,54.77
2019-02-28T07:04:01.292Z,59.33
2019-02-28T07:06:35.948Z,52.10
2019-02-28T07:09:12.705Z,54.10
2019-02-28T07:11:45.890Z,55.13
2019-02-28T07:14:21.179Z,50.50
2019-02-28T07:17:14.834Z,56.90
2019-02-28T07:20:04.704Z,49.40
2019-02-28T07:22:54.514Z,49.40
2019-02-28T07:25:25.979Z,49.13
2019-02-28T07:28:09.079Z,47.67
2019-02-28T07:30:50.351Z,50.47
2019-02-28T07:33:26.537Z,45.00
2019-02-28T07:36:21.445Z,53.17
2019-02-28T07:39:01.326Z,47.90
2019-02-28T07:41:37.392Z,47.27
2019-02-28T07:44:12.742Z,44.97
2019-02-28T07:46:50.434Z,46.83
2019-02-28T07:49:41.164Z,43.70
2019-02-28T07:52:16.219Z,43.90
2019-02-28T07:55:13.318Z,42.67
2019-02-28T07:57:53.226Z,44.97
2019-02-28T08:00:30.912Z,47.90
2019-02-28T08:06:09.515Z,47.27
2019-02-28T08:09:05.981Z,43.10
2019-02-28T08:14:47.117Z,48.13
2019-02-28T08:17:20.057Z,44.33
2019-02-28T08:20:34.029Z,47.47
2019-02-28T08:23:41.551Z,44.77
2019-02-28T08:26:54.300Z,44.30
2019-02-28T08:30:34.391Z,45.83
2019-02-28T08:33:53.518Z,45.17
2019-02-28T08:37:20.179Z,39.67
2019-02-28T08:41:06.380Z,41.37
2019-02-28T08:43:53.945Z,39.50
2019-02-28T08:46:29.627Z,40.60
2019-02-28T08:53:19.737Z,45.60
2019-02-28T08:56:05.534Z,42.65
2019-02-28T08:59:28.199Z,43.03
2019-02-28T09:02:14.569Z,39.88
2019-02-28T09:04:55.380Z,43.30
2019-02-28T09:07:37.803Z,41.85
2019-02-28T09:10:22.402Z,37.65
2019-02-28T09:13:01.895Z,39.03
2019-02-28T09:15:43.743Z,37.17
2019-02-28T09:18:44.797Z,39.15
2019-02-28T09:21:28.173Z,37.98
2019-02-28T09:24:21.785Z,41.45
2019-02-28T09:27:01.383Z,41.73
2019-02-28T09:29:55.621Z,42.15
2019-02-28T09:32:53.527Z,38.10
2019-02-28T09:35:35.744Z,39.73
2019-02-28T09:38:26.240Z,39.38
2019-02-28T09:41:16.709Z,37.60
2019-02-28T09:44:00.312Z,39.25
2019-02-28T09:46:38.742Z,38.58
2019-02-28T09:50:03.503Z,37.70
2019-02-28T09:52:45.713Z,37.40
2019-02-28T09:55:52.373Z,34.65
2019-02-28T09:58:39.257Z,35.33
2019-02-28T10:02:08.391Z,36.00
2019-02-28T10:05:11.754Z,34.10
2019-02-28T10:08:06.981Z,35.98
2019-02-28T10:11:00.671Z,32.20
2019-02-28T10:14:04.198Z,32.67
2019-02-28T10:17:07.508Z,29.63
2019-02-28T10:24:51.330Z,32.28
2019-02-28T10:27:23.313Z,29.25
2019-02-28T10:29:52.091Z,29.55
2019-02-28T10:32:21.550Z,29.15
2019-02-28T10:34:50.360Z,28.67
2019-02-28T10:37:22.465Z,29.63
2019-02-28T10:39:49.957Z,30.75
2019-02-28T10:42:18.781Z,29.20
2019-02-28T10:44:47.813Z,27.70
2019-02-28T10:47:16.562Z,25.70
2019-02-28T10:49:45.370Z,26.68
2019-02-28T10:52:14.346Z,23.57
2019-02-28T10:54:46.075Z,25.00
2019-02-28T10:57:13.839Z,25.05
2019-02-28T10:59:42.923Z,26.77
2019-02-28T11:04:48.869Z,26.77
2019-02-28T11:07:18.158Z,25.57
2019-02-28T11:09:47.661Z,28.02
2019-02-28T11:12:20.290Z,25.37
2019-02-28T11:14:49.421Z,26.55
2019-02-28T11:17:18.520Z,26.35
2019-02-28T11:19:48.537Z,27.77
2019-02-28T11:22:18.067Z,29.20
2019-02-28T11:24:47.945Z,26.70
2019-02-28T11:27:19.709Z,30.95
2019-02-28T11:29:47.560Z,35.63
2019-02-28T11:32:16.593Z,29.55
2019-02-28T11:34:45.836Z,32.35
2019-02-28T11:37:16.187Z,30.55
2019-02-28T11:39:45.401Z,32.88
2019-02-28T11:42:14.204Z,35.28
2019-02-28T11:44:46.281Z,40.73
2019-02-28T11:47:14.084Z,36.87
2019-02-28T11:49:42.888Z,36.63
2019-02-28T11:52:12.183Z,31.80
2019-02-28T11:54:41.364Z,31.97
2019-02-28T11:57:10.202Z,32.97
2019-02-28T11:59:39.083Z,33.03
2019-02-28T12:02:08.345Z,36.40
2019-02-28T12:04:37.464Z,30.77
2019-02-28T12:07:07.656Z,32.93
2019-02-28T12:09:36.853Z,36.37
2019-02-28T12:12:07.258Z,32.90
2019-02-28T12:14:36.086Z,34.70
2019-02-28T12:17:06.413Z,31.07
2019-02-28T12:19:35.300Z,29.73
2019-02-28T12:22:04.374Z,33.07
2019-02-28T12:24:33.465Z,31.97
2019-02-28T12:27:04.109Z,34.23
2019-02-28T12:29:32.985Z,30.08
2019-02-28T12:32:01.729Z,31.50
2019-02-28T12:34:30.759Z,42.20
2019-02-28T12:37:00.356Z,34.73
2019-02-28T12:39:29.447Z,29.77
2019-02-28T12:41:59.500Z,34.37
2019-02-28T12:44:29.246Z,32.47
2019-02-28T12:46:58.382Z,32.27
2019-02-28T12:49:27.691Z,31.00
2019-02-28T12:51:56.465Z,31.70
2019-02-28T12:54:26.052Z,33.70
2019-02-28T12:56:55.013Z,32.50
2019-02-28T12:59:24.031Z,31.43
2019-02-28T13:01:52.893Z,35.20
2019-02-28T13:04:21.675Z,38.23
2019-02-28T13:06:50.405Z,37.73
2019-02-28T13:09:19.369Z,38.83
2019-02-28T13:11:48.193Z,38.43
2019-02-28T13:14:17.389Z,42.13
2019-02-28T13:16:46.306Z,41.27
2019-02-28T13:19:16.415Z,40.70
2019-02-28T13:21:46.924Z,46.60
2019-02-28T13:24:16.838Z,44.30
2019-02-28T13:26:45.578Z,46.30
2019-02-28T13:29:14.509Z,49.13
2019-02-28T13:31:43.316Z,54.07
2019-02-28T13:34:13.324Z,49.57
2019-02-28T13:36:42.120Z,52.40
2019-02-28T13:39:11.184Z,49.60
2019-02-28T13:41:40.090Z,48.37
2019-02-28T13:44:08.812Z,47.47
2019-02-28T13:46:37.529Z,44.93
2019-02-28T13:49:08.524Z,43.80
2019-02-28T13:51:42.116Z,44.87
2019-02-28T13:54:08.094Z,44.60
2019-02-28T13:56:37.132Z,39.40
2019-02-28T13:59:06.082Z,39.70
2019-02-28T14:01:35.092Z,40.17
2019-02-28T14:04:04.424Z,38.80
2019-02-28T14:06:33.281Z,41.80
2019-02-28T14:09:02.255Z,38.57
2019-02-28T14:11:31.274Z,36.70
2019-02-28T14:14:01.268Z,38.87
2019-02-28T14:16:30.469Z,36.63
2019-02-28T14:18:59.214Z,40.03
2019-02-28T14:21:28.158Z,34.03
2019-02-28T14:23:59.027Z,46.30
2019-02-28T14:26:27.604Z,52.27
2019-02-28T14:28:57.576Z,52.63
2019-02-28T14:31:26.392Z,49.43
2019-02-28T14:33:56.193Z,53.93
2019-02-28T14:36:25.090Z,56.87
2019-02-28T14:38:53.826Z,51.63
2019-02-28T14:41:24.719Z,55.43
2019-02-28T14:43:56.035Z,54.73
2019-02-28T14:46:23.823Z,52.40
2019-02-28T14:48:52.788Z,55.83
2019-02-28T14:51:21.696Z,60.47
2019-02-28T14:53:50.506Z,55.50
2019-02-28T14:56:19.460Z,55.10
2019-02-28T14:58:48.190Z,51.57
2019-02-28T15:01:20.457Z,51.27
2019-02-28T15:03:47.870Z,51.40
2019-02-28T15:06:16.594Z,54.27
2019-02-28T15:08:47.425Z,49.40
2019-02-28T15:11:16.360Z,50.63
2019-02-28T15:13:45.275Z,48.97
2019-02-28T15:16:14.034Z,50.13
2019-02-28T15:18:44.413Z,51.07
2019-02-28T15:21:13.840Z,47.87
2019-02-28T15:23:42.852Z,48.30
2019-02-28T15:26:11.668Z,46.73
2019-02-28T15:28:40.843Z,46.20
2019-02-28T15:31:09.627Z,40.17
2019-02-28T15:33:38.388Z,40.97
2019-02-28T15:36:07.158Z,37.87
2019-02-28T15:38:35.957Z,37.87
2019-02-28T15:41:05.432Z,37.80
2019-02-28T15:43:34.173Z,40.17
2019-02-28T15:46:03.248Z,39.97
2019-02-28T15:48:34.566Z,39.47
2019-02-28T15:51:03.544Z,41.43
2019-02-28T15:53:32.620Z,34.93
2019-02-28T15:56:01.529Z,35.37
2019-02-28T15:58:30.590Z,32.93
2019-02-28T16:00:59.402Z,38.03
2019-02-28T16:03:28.713Z,36.27
2019-02-28T16:05:57.682Z,34.57
2019-02-28T16:08:28.370Z,37.07
2019-02-28T16:10:57.359Z,33.47
2019-02-28T16:13:26.606Z,33.60
2019-02-28T16:15:55.372Z,34.07
2019-02-28T16:18:24.463Z,36.50
2019-02-28T16:20:53.210Z,31.70
2019-02-28T16:23:23.657Z,35.33
2019-02-28T16:25:52.798Z,34.53
2019-02-28T16:28:22.832Z,31.07
2019-02-28T16:30:51.949Z,33.07
2019-02-28T16:33:24.744Z,33.73
2019-02-28T16:35:51.606Z,34.63
2019-02-28T16:38:20.430Z,31.50
2019-02-28T16:40:49.309Z,29.20
2019-02-28T16:43:20.815Z,28.97
2019-02-28T16:45:50.471Z,30.73
2019-02-28T16:48:19.441Z,27.70
2019-02-28T16:50:50.571Z,24.90
2019-02-28T16:53:19.157Z,26.20
2019-02-28T16:55:48.262Z,26.00
2019-02-28T16:58:18.524Z,28.57
2019-02-28T17:00:47.782Z,28.50
2019-02-28T17:03:17.083Z,24.87
2019-02-28T17:05:45.889Z,25.37
2019-02-28T17:08:15.559Z,23.00
2019-02-28T17:10:45.839Z,21.43
2019-02-28T17:13:27.572Z,23.53
2019-02-28T17:16:04.041Z,22.23
2019-02-28T17:18:33.863Z,21.97
2019-02-28T17:21:02.781Z,18.53
2019-02-28T17:23:33.610Z,17.93
2019-02-28T17:26:02.265Z,18.60
2019-02-28T17:28:38.397Z,16.20
2019-02-28T17:31:28.031Z,23.97
2019-02-28T17:33:56.930Z,17.17
2019-02-28T17:36:25.749Z,17.10
2019-02-28T17:38:54.497Z,16.60
2019-02-28T17:41:23.644Z,15.33
2019-02-28T17:44:37.562Z,12.53
2019-02-28T17:47:15.528Z,19.17
2019-02-28T17:50:39.428Z,13.00
2019-02-28T17:53:32.325Z,13.63
2019-02-28T17:56:40.854Z,11.77
2019-02-28T17:59:36.102Z,13.77
2019-02-28T18:02:50.334Z,13.80
2019-02-28T18:05:56.036Z,13.20
2019-02-28T18:09:09.652Z,11.60
2019-02-28T18:12:02.306Z,12.47
2019-02-28T18:15:05.558Z,18.43
2019-02-28T18:18:08.920Z,16.10
2019-02-28T18:21:04.515Z,16.20
2019-02-28T18:23:55.703Z,12.43
2019-02-28T18:27:08.350Z,13.93
2019-02-28T18:30:05.396Z,11.57
2019-02-28T18:32:34.522Z,11.73
2019-02-28T18:35:03.413Z,15.70
2019-02-28T18:37:32.314Z,12.67
2019-02-28T18:40:01.657Z,14.27
2019-02-28T18:42:30.400Z,14.10
2019-02-28T18:44:59.328Z,13.07
2019-02-28T18:47:28.320Z,13.20
2019-02-28T18:49:57.081Z,15.27
2019-02-28T18:52:26.263Z,18.43
2019-02-28T18:54:55.350Z,11.30
2019-02-28T18:57:24.077Z,13.07
2019-02-28T18:59:52.961Z,13.57
2019-02-28T19:02:21.946Z,11.73
2019-02-28T19:04:50.781Z,11.67
2019-02-28T19:07:19.493Z,11.83
2019-02-28T19:09:48.657Z,12.07
2019-02-28T19:12:17.760Z,12.00
2019-02-28T19:14:46.602Z,11.90
2019-02-28T19:17:16.877Z,16.40
2019-02-28T19:19:45.601Z,10.67
2019-02-28T19:22:14.332Z,11.70
2019-02-28T19:24:43.323Z,16.40
2019-02-28T19:27:12.416Z,9.53
2019-02-28T19:29:41.262Z,11.80
2019-02-28T19:32:10.253Z,11.60
2019-02-28T19:34:39.488Z,12.97
2019-02-28T19:37:08.473Z,8.83
2019-02-28T19:39:37.243Z,12.77
2019-02-28T19:42:06.469Z,15.03
2019-02-28T19:44:35.610Z,11.87
2019-02-28T19:47:04.545Z,11.90
2019-02-28T19:49:33.477Z,13.43
2019-02-28T19:52:02.293Z,14.40
2019-02-28T19:54:31.130Z,11.80
2019-02-28T19:57:00.322Z,11.27
2019-02-28T19:59:29.042Z,12.63
2019-02-28T20:01:57.768Z,13.33
2019-02-28T20:04:26.605Z,12.73
2019-02-28T20:06:55.469Z,15.13
2019-02-28T20:09:24.484Z,13.43
2019-02-28T20:11:53.448Z,11.60
2019-02-28T20:14:22.270Z,13.27
2019-02-28T20:16:51.552Z,11.63
2019-02-28T20:19:20.403Z,10.63
2019-02-28T20:21:49.275Z,8.27
2019-02-28T20:24:18.140Z,13.67
2019-02-28T20:26:46.973Z,19.03
2019-02-28T20:29:16.236Z,12.43
2019-02-28T20:31:45.299Z,13.90
2019-02-28T20:34:14.374Z,10.63
2019-02-28T20:36:43.172Z,13.93
2019-02-28T20:39:14.429Z,12.17
2019-02-28T20:41:43.413Z,13.93
2019-02-28T20:44:12.240Z,14.30
2019-02-28T20:46:41.215Z,12.80
2019-02-28T20:49:10.025Z,13.67
2019-02-28T20:51:38.825Z,11.03
2019-02-28T20:54:07.744Z,14.37
2019-02-28T20:56:36.729Z,16.83
2019-02-28T20:59:05.761Z,10.67
2019-02-28T21:01:34.809Z,13.20
2019-02-28T21:04:03.668Z,14.00
2019-02-28T21:06:32.397Z,16.53
2019-02-28T21:09:01.496Z,15.27
2019-02-28T21:11:30.289Z,14.47
2019-02-28T21:13:59.386Z,15.83
2019-02-28T21:16:28.353Z,11.87
2019-02-28T21:18:58.307Z,13.43
2019-02-28T21:21:27.699Z,14.90
2019-02-28T21:23:57.196Z,10.53
2019-02-28T21:26:26.182Z,12.83
2019-02-28T21:28:54.989Z,13.17
2019-02-28T21:31:23.834Z,12.43
2019-02-28T21:33:52.862Z,14.57
2019-02-28T21:36:21.677Z,15.27
2019-02-28T21:38:50.400Z,11.60
2019-02-28T21:41:19.701Z,11.77
2019-02-28T21:43:48.495Z,10.83
2019-02-28T21:46:17.322Z,10.43
2019-02-28T21:48:46.246Z,8.33
2019-02-28T21:51:15.278Z,8.37
2019-02-28T21:53:44.269Z,10.27
2019-02-28T21:56:12.999Z,9.50
2019-02-28T21:58:42.068Z,11.50
2019-02-28T22:01:11.004Z,11.87
2019-02-28T22:03:39.763Z,11.43
2019-02-28T22:06:08.553Z,11.63
2019-02-28T22:08:37.272Z,10.87
2019-02-28T22:11:06.268Z,14.30
2019-02-28T22:13:35.133Z,14.47
2019-02-28T22:16:03.999Z,12.40
2019-02-28T22:18:32.873Z,10.53
2019-02-28T22:21:01.642Z,16.57
2019-02-28T22:23:30.792Z,13.67
2019-02-28T22:25:59.909Z,15.07
2019-02-28T22:28:28.868Z,16.97
2019-02-28T22:31:12.149Z,15.73
2019-02-28T22:33:46.224Z,13.70
2019-02-28T22:36:17.980Z,13.73
2019-02-28T22:38:46.749Z,14.70
2019-02-28T22:41:15.482Z,14.90
2019-02-28T22:43:44.866Z,16.20
2019-02-28T22:46:13.584Z,13.77
2019-02-28T22:48:42.291Z,15.83
2019-02-28T22:51:11.136Z,14.70
2019-02-28T22:53:40.002Z,15.63
2019-02-28T22:56:08.789Z,18.07
2019-02-28T22:58:37.730Z,22.50
2019-02-28T23:01:14.788Z,17.47
2019-02-28T23:03:43.966Z,20.47
2019-02-28T23:06:13.075Z,17.57
2019-02-28T23:08:41.949Z,18.40
2019-02-28T23:11:11.558Z,17.97
2019-02-28T23:13:40.305Z,18.80
2019-02-28T23:16:09.560Z,19.60
2019-02-28T23:18:38.469Z,17.27
2019-02-28T23:21:07.268Z,18.80
2019-02-28T23:23:36.012Z,21.63
2019-02-28T23:26:08.309Z,18.97
2019-02-28T23:28:40.831Z,21.00
2019-02-28T23:31:48.232Z,20.13
2019-02-28T23:34:28.556Z,18.93
2019-02-28T23:36:57.617Z,18.97
2019-02-28T23:39:26.370Z,23.30
2019-02-28T23:41:55.123Z,22.27
2019-02-28T23:44:24.053Z,18.73
2019-02-28T23:46:54.956Z,17.20
2019-02-28T23:49:23.862Z,22.37
2019-02-28T23:51:52.794Z,16.23
2019-02-28T23:54:21.571Z,19.43
2019-02-28T23:56:50.293Z,20.83
2019-02-28T23:59:19.879Z,17.60
